Terminal Aerodrome Forecast
Issued by NWS Bismarck, ND

Home | Current Version | Previous Version | Text Only | Print | Product List | Glossary On
Versions: 1 2 3 4 5 6 7 8 9 10 11 12 13 14
855
FTUS43 KBIS 201730
TAFBIS
TAF
KBIS 201730Z 2018/2118 28012KT P6SM BKN090
     FM201900 28014KT P6SM SCT040
     FM210000 25008KT P6SM FEW090
     FM210300 21004KT P6SM FEW140
     FM210700 16004KT P6SM BKN090
     FM211100 22005KT P6SM SCT200=

USA.gov is the U.S. government's official web portal to all federal, state and local government web resources and services.